Rochelle, Illinois
Current Conditions -  °F | °C
As of 4:15 AM on Saturday 20 Dec 2014 (Local Time) from KRPJ Reporting Station
Haze Haze  
Wind Chill: -3°   Ceiling: 4800
Heat Index: -3°   Visibility: 5mi
Dew Point: -5°   Wind: 0mph
Humidity: 93%   Direction: NA
Pressure: 30.26"   Gusts: NA
Location:  41.93°N, 89.07°W
Report Text: KRPJ 201015Z AUTO 00000KT 5SM BR OVC048 M03/M04 A3026 RMK AO2 T10351045
Loading
Personal Weather Stations






























Interactive Weather Map New forecast layout! Learn more

10-Day Weather Forecast

Advertisements
Track Severe Weather on mobile